SABE

Buenos Aires/Aeroparque Jorge Newbery

Airport
ICAO code
SABE
IATA Code
AEP
Summary
ICAO Region
CARSAM
ICAO Territory
Location

Palermo, Buenos Aires

Serving
Buenos Aires
Elevation
18 ft
Coordinates
34° 33' 29" S , 58° 24' 50" W
KCC
Metar
SABE 221200Z 32003KT 280V350 1000 R13/P2000N -DZ BR OVC005 12/11 Q1023 NOSIG

International airport serving the city of Buenos Aires.

Climatology

Humid “subtropical” climate (Köppen climate classification Cfa) - characterized by hot, humid summers and cool winters. Significant amounts of precipitation occur in all seasons in most areas. Winter rainfall (and sometimes snowfall) is associated with large storms that the westerlies steer from west to east. Most summer rainfall occurs during thunderstorms.

Runways

Designator Length Width Surface Rops
13/31 2100 40 CON Yes/Yes

Airport map

Aerial View

SKYbrary Partners:

Safety knowledge contributed by: